sensor_id;sensor_type;location;lat;lon;timestamp;pressure;altitude;pressure_sealevel;temperature;humidity
56006;BME280;41888;44.696;10.522;2023-04-10T00:00:18;101211.81;;;9.46;87.71
56006;BME280;41888;44.696;10.522;2023-04-10T00:02:45;101211.97;;;9.45;87.80
56006;BME280;41888;44.696;10.522;2023-04-10T00:05:12;101206.00;;;9.43;88.07
56006;BME280;41888;44.696;10.522;2023-04-10T00:07:38;101206.97;;;9.50;87.64
56006;BME280;41888;44.696;10.522;2023-04-10T00:10:04;101203.19;;;9.44;88.20
56006;BME280;41888;44.696;10.522;2023-04-10T00:12:30;101203.88;;;9.38;88.97
56006;BME280;41888;44.696;10.522;2023-04-10T00:14:57;101194.97;;;9.31;89.73
56006;BME280;41888;44.696;10.522;2023-04-10T00:17:24;101197.00;;;9.29;90.00
56006;BME280;41888;44.696;10.522;2023-04-10T00:19:50;101199.13;;;9.33;89.86
56006;BME280;41888;44.696;10.522;2023-04-10T00:22:16;101189.88;;;9.29;90.27
56006;BME280;41888;44.696;10.522;2023-04-10T00:24:43;101195.59;;;9.18;91.67
56006;BME280;41888;44.696;10.522;2023-04-10T00:27:09;101196.00;;;9.30;91.95
56006;BME280;41888;44.696;10.522;2023-04-10T00:29:35;101195.06;;;9.23;93.52
56006;BME280;41888;44.696;10.522;2023-04-10T00:32:01;101196.94;;;9.14;93.17
56006;BME280;41888;44.696;10.522;2023-04-10T00:34:27;101187.72;;;9.02;94.41
56006;BME280;41888;44.696;10.522;2023-04-10T00:36:53;101191.84;;;9.05;93.42
56006;BME280;41888;44.696;10.522;2023-04-10T00:39:20;101191.22;;;9.03;93.62
56006;BME280;41888;44.696;10.522;2023-04-10T00:41:46;101190.38;;;9.02;94.85
56006;BME280;41888;44.696;10.522;2023-04-10T00:44:12;101194.25;;;8.92;94.95
56006;BME280;41888;44.696;10.522;2023-04-10T00:46:39;101196.91;;;8.92;95.73
56006;BME280;41888;44.696;10.522;2023-04-10T00:49:06;101189.97;;;8.90;95.85
56006;BME280;41888;44.696;10.522;2023-04-10T00:51:35;101187.00;;;8.85;97.62
56006;BME280;41888;44.696;10.522;2023-04-10T00:54:01;101190.88;;;8.75;96.49
56006;BME280;41888;44.696;10.522;2023-04-10T00:56:30;101187.75;;;8.71;97.65
56006;BME280;41888;44.696;10.522;2023-04-10T00:58:57;101183.50;;;8.85;98.24
56006;BME280;41888;44.696;10.522;2023-04-10T01:01:23;101184.66;;;8.90;97.49
56006;BME280;41888;44.696;10.522;2023-04-10T01:03:49;101188.09;;;8.68;98.31
56006;BME280;41888;44.696;10.522;2023-04-10T01:12:58;101185.94;;;8.33;100.00
56006;BME280;41888;44.696;10.522;2023-04-10T01:15:38;101185.59;;;8.20;100.00
56006;BME280;41888;44.696;10.522;2023-04-10T01:18:24;101188.97;;;8.05;100.00
56006;BME280;41888;44.696;10.522;2023-04-10T01:20:51;101195.59;;;7.93;100.00
56006;BME280;41888;44.696;10.522;2023-04-10T01:23:30;101188.50;;;8.02;100.00
56006;BME280;41888;44.696;10.522;2023-04-10T01:26:07;101189.13;;;8.04;100.00
56006;BME280;41888;44.696;10.522;2023-04-10T01:28:50;101186.16;;;8.07;100.00
56006;BME280;41888;44.696;10.522;2023-04-10T01:31:29;101185.31;;;8.06;100.00
56006;BME280;41888;44.696;10.522;2023-04-10T01:34:01;101186.34;;;7.89;100.00
56006;BME280;41888;44.696;10.522;2023-04-10T01:36:46;101186.19;;;7.91;100.00
56006;BME280;41888;44.696;10.522;2023-04-10T01:39:15;101191.81;;;7.88;100.00
56006;BME280;41888;44.696;10.522;2023-04-10T01:41:44;101185.03;;;7.85;100.00
56006;BME280;41888;44.696;10.522;2023-04-10T01:44:13;101177.13;;;7.77;100.00
56006;BME280;41888;44.696;10.522;2023-04-10T01:46:42;101182.91;;;7.73;100.00
56006;BME280;41888;44.696;10.522;2023-04-10T01:49:09;101181.75;;;7.67;100.00
56006;BME280;41888;44.696;10.522;2023-04-10T01:51:36;101181.75;;;7.59;100.00
56006;BME280;41888;44.696;10.522;2023-04-10T01:54:03;101179.28;;;7.41;100.00
56006;BME280;41888;44.696;10.522;2023-04-10T01:56:32;101177.13;;;7.37;100.00
56006;BME280;41888;44.696;10.522;2023-04-10T01:58:59;101181.44;;;7.30;100.00
56006;BME280;41888;44.696;10.522;2023-04-10T02:01:25;101183.91;;;7.31;100.00
56006;BME280;41888;44.696;10.522;2023-04-10T02:03:52;101183.75;;;7.33;100.00
56006;BME280;41888;44.696;10.522;2023-04-10T02:06:39;101191.34;;;7.19;100.00
56006;BME280;41888;44.696;10.522;2023-04-10T02:12:09;101188.34;;;6.98;100.00
56006;BME280;41888;44.696;10.522;2023-04-10T02:14:38;101186.69;;;6.81;100.00
56006;BME280;41888;44.696;10.522;2023-04-10T02:17:08;101189.97;;;6.83;100.00
56006;BME280;41888;44.696;10.522;2023-04-10T02:19:36;101184.66;;;6.75;100.00
56006;BME280;41888;44.696;10.522;2023-04-10T02:22:04;101196.75;;;6.86;100.00
56006;BME280;41888;44.696;10.522;2023-04-10T02:24:31;101195.41;;;6.73;100.00
56006;BME280;41888;44.696;10.522;2023-04-10T02:26:58;101193.09;;;6.70;100.00
56006;BME280;41888;44.696;10.522;2023-04-10T02:29:24;101201.28;;;6.51;100.00
56006;BME280;41888;44.696;10.522;2023-04-10T02:31:51;101191.53;;;6.52;100.00
56006;BME280;41888;44.696;10.522;2023-04-10T02:34:17;101195.13;;;6.43;100.00
56006;BME280;41888;44.696;10.522;2023-04-10T02:36:43;101197.09;;;6.41;100.00
56006;BME280;41888;44.696;10.522;2023-04-10T02:39:10;101208.91;;;6.20;100.00
56006;BME280;41888;44.696;10.522;2023-04-10T02:41:36;101206.41;;;6.19;100.00
56006;BME280;41888;44.696;10.522;2023-04-10T02:44:02;101199.38;;;6.27;100.00
56006;BME280;41888;44.696;10.522;2023-04-10T02:46:28;101205.59;;;6.18;100.00
56006;BME280;41888;44.696;10.522;2023-04-10T02:48:54;101200.69;;;6.31;100.00
56006;BME280;41888;44.696;10.522;2023-04-10T02:51:21;101209.59;;;6.30;100.00
56006;BME280;41888;44.696;10.522;2023-04-10T02:53:47;101210.91;;;6.26;100.00
56006;BME280;41888;44.696;10.522;2023-04-10T02:56:13;101207.16;;;6.29;100.00
56006;BME280;41888;44.696;10.522;2023-04-10T02:58:40;101204.91;;;6.16;100.00
56006;BME280;41888;44.696;10.522;2023-04-10T03:01:10;101205.19;;;6.05;100.00
56006;BME280;41888;44.696;10.522;2023-04-10T03:03:36;101213.72;;;5.99;100.00
56006;BME280;41888;44.696;10.522;2023-04-10T03:06:02;101211.50;;;6.12;100.00
56006;BME280;41888;44.696;10.522;2023-04-10T03:08:29;101218.28;;;6.15;100.00
56006;BME280;41888;44.696;10.522;2023-04-10T03:10:55;101213.47;;;6.10;100.00
56006;BME280;41888;44.696;10.522;2023-04-10T03:13:21;101215.63;;;6.15;100.00
56006;BME280;41888;44.696;10.522;2023-04-10T03:15:51;101220.72;;;6.08;100.00
56006;BME280;41888;44.696;10.522;2023-04-10T03:18:17;101216.44;;;6.07;100.00
56006;BME280;41888;44.696;10.522;2023-04-10T03:20:43;101214.09;;;6.04;100.00
56006;BME280;41888;44.696;10.522;2023-04-10T03:23:09;101213.53;;;6.18;100.00
56006;BME280;41888;44.696;10.522;2023-04-10T03:25:35;101218.75;;;6.10;100.00
56006;BME280;41888;44.696;10.522;2023-04-10T03:28:02;101222.47;;;6.00;100.00
56006;BME280;41888;44.696;10.522;2023-04-10T03:30:28;101220.53;;;5.84;100.00
56006;BME280;41888;44.696;10.522;2023-04-10T03:32:54;101213.00;;;5.71;100.00
56006;BME280;41888;44.696;10.522;2023-04-10T03:35:21;101215.13;;;5.68;100.00
56006;BME280;41888;44.696;10.522;2023-04-10T03:37:47;101223.56;;;5.71;100.00
56006;BME280;41888;44.696;10.522;2023-04-10T03:40:13;101216.44;;;5.64;100.00
56006;BME280;41888;44.696;10.522;2023-04-10T03:42:39;101215.38;;;5.57;100.00
56006;BME280;41888;44.696;10.522;2023-04-10T03:45:06;101216.22;;;5.57;100.00
56006;BME280;41888;44.696;10.522;2023-04-10T03:47:33;101220.75;;;5.47;100.00
56006;BME280;41888;44.696;10.522;2023-04-10T03:49:59;101229.78;;;5.62;100.00
56006;BME280;41888;44.696;10.522;2023-04-10T03:52:26;101227.50;;;5.67;100.00
56006;BME280;41888;44.696;10.522;2023-04-10T03:54:53;101221.41;;;5.67;100.00
56006;BME280;41888;44.696;10.522;2023-04-10T03:57:20;101233.06;;;5.82;100.00
56006;BME280;41888;44.696;10.522;2023-04-10T03:59:47;101233.69;;;5.76;100.00
56006;BME280;41888;44.696;10.522;2023-04-10T04:02:13;101230.94;;;5.60;100.00
56006;BME280;41888;44.696;10.522;2023-04-10T04:04:40;101230.50;;;5.72;100.00
56006;BME280;41888;44.696;10.522;2023-04-10T04:07:06;101233.53;;;5.77;100.00
56006;BME280;41888;44.696;10.522;2023-04-10T04:09:32;101236.78;;;5.89;100.00
56006;BME280;41888;44.696;10.522;2023-04-10T04:11:58;101235.88;;;5.80;100.00
56006;BME280;41888;44.696;10.522;2023-04-10T04:14:24;101234.50;;;5.76;100.00
56006;BME280;41888;44.696;10.522;2023-04-10T04:16:50;101237.91;;;5.69;100.00
56006;BME280;41888;44.696;10.522;2023-04-10T04:19:17;101235.59;;;5.66;100.00
56006;BME280;41888;44.696;10.522;2023-04-10T04:21:43;101241.03;;;5.46;100.00
56006;BME280;41888;44.696;10.522;2023-04-10T04:24:09;101241.94;;;5.37;100.00
56006;BME280;41888;44.696;10.522;2023-04-10T04:26:35;101240.81;;;5.40;100.00
56006;BME280;41888;44.696;10.522;2023-04-10T04:29:01;101240.81;;;5.40;100.00
56006;BME280;41888;44.696;10.522;2023-04-10T04:31:28;101247.00;;;5.31;100.00
56006;BME280;41888;44.696;10.522;2023-04-10T04:33:58;101244.50;;;5.29;100.00
56006;BME280;41888;44.696;10.522;2023-04-10T04:36:24;101248.41;;;5.25;100.00
56006;BME280;41888;44.696;10.522;2023-04-10T04:38:51;101247.31;;;5.28;100.00
56006;BME280;41888;44.696;10.522;2023-04-10T04:41:17;101252.34;;;5.21;100.00
56006;BME280;41888;44.696;10.522;2023-04-10T04:43:44;101252.41;;;5.29;100.00
56006;BME280;41888;44.696;10.522;2023-04-10T04:46:10;101254.66;;;5.24;100.00
56006;BME280;41888;44.696;10.522;2023-04-10T04:48:37;101254.28;;;5.19;100.00
56006;BME280;41888;44.696;10.522;2023-04-10T04:51:05;101255.88;;;5.12;100.00
56006;BME280;41888;44.696;10.522;2023-04-10T04:53:31;101257.00;;;5.09;100.00
56006;BME280;41888;44.696;10.522;2023-04-10T04:55:57;101259.34;;;5.13;100.00
56006;BME280;41888;44.696;10.522;2023-04-10T04:58:23;101268.25;;;5.29;100.00
56006;BME280;41888;44.696;10.522;2023-04-10T05:00:52;101273.97;;;5.78;100.00
56006;BME280;41888;44.696;10.522;2023-04-10T05:03:19;101277.50;;;6.98;100.00
56006;BME280;41888;44.696;10.522;2023-04-10T05:05:46;101278.59;;;7.70;100.00
56006;BME280;41888;44.696;10.522;2023-04-10T05:08:12;101284.56;;;8.75;96.39
56006;BME280;41888;44.696;10.522;2023-04-10T05:10:38;101285.56;;;9.36;90.46
56006;BME280;41888;44.696;10.522;2023-04-10T05:13:04;101288.72;;;10.00;84.33
56006;BME280;41888;44.696;10.522;2023-04-10T05:15:31;101295.81;;;10.59;78.34
56006;BME280;41888;44.696;10.522;2023-04-10T05:17:57;101298.13;;;10.63;77.19
56006;BME280;41888;44.696;10.522;2023-04-10T05:20:23;101295.88;;;11.10;75.27
56006;BME280;41888;44.696;10.522;2023-04-10T05:22:49;101300.47;;;10.87;74.53
56006;BME280;41888;44.696;10.522;2023-04-10T05:25:18;101301.16;;;11.25;72.79
56006;BME280;41888;44.696;10.522;2023-04-10T05:27:44;101306.31;;;11.12;72.45
56006;BME280;41888;44.696;10.522;2023-04-10T05:30:10;101299.78;;;11.50;71.21
56006;BME280;41888;44.696;10.522;2023-04-10T05:32:37;101309.94;;;12.04;67.29
56006;BME280;41888;44.696;10.522;2023-04-10T05:35:03;101309.47;;;12.21;66.69
56006;BME280;41888;44.696;10.522;2023-04-10T05:37:29;101311.84;;;12.72;63.73
56006;BME280;41888;44.696;10.522;2023-04-10T05:39:56;101310.75;;;13.01;62.19
56006;BME280;41888;44.696;10.522;2023-04-10T05:42:22;101310.19;;;13.05;61.87
56006;BME280;41888;44.696;10.522;2023-04-10T05:44:48;101320.09;;;14.38;57.06
56006;BME280;41888;44.696;10.522;2023-04-10T05:47:15;101311.81;;;15.61;52.97
56006;BME280;41888;44.696;10.522;2023-04-10T05:49:41;101319.31;;;16.59;50.33
56006;BME280;41888;44.696;10.522;2023-04-10T05:52:07;101321.09;;;17.49;47.66
56006;BME280;41888;44.696;10.522;2023-04-10T05:54:33;101331.75;;;17.26;47.10
56006;BME280;41888;44.696;10.522;2023-04-10T05:57:00;101318.47;;;15.84;52.18
56006;BME280;41888;44.696;10.522;2023-04-10T05:59:26;101316.81;;;15.58;52.67
56006;BME280;41888;44.696;10.522;2023-04-10T06:01:53;101329.38;;;14.42;56.33
56006;BME280;41888;44.696;10.522;2023-04-10T06:04:19;101330.78;;;14.31;58.19
56006;BME280;41888;44.696;10.522;2023-04-10T06:06:46;101329.53;;;14.60;57.68
56006;BME280;41888;44.696;10.522;2023-04-10T06:09:12;101334.09;;;14.27;58.26
56006;BME280;41888;44.696;10.522;2023-04-10T06:11:38;101344.66;;;15.06;55.75
56006;BME280;41888;44.696;10.522;2023-04-10T06:14:05;101337.34;;;15.71;54.44
56006;BME280;41888;44.696;10.522;2023-04-10T06:16:31;101342.28;;;16.73;51.35
56006;BME280;41888;44.696;10.522;2023-04-10T06:18:58;101351.38;;;18.28;47.10
56006;BME280;41888;44.696;10.522;2023-04-10T06:21:24;101361.84;;;17.94;47.90
56006;BME280;41888;44.696;10.522;2023-04-10T06:23:51;101354.09;;;17.56;47.59
56006;BME280;41888;44.696;10.522;2023-04-10T06:26:17;101354.50;;;17.60;49.18
56006;BME280;41888;44.696;10.522;2023-04-10T06:28:43;101352.25;;;15.15;55.12
56006;BME280;41888;44.696;10.522;2023-04-10T06:31:10;101356.22;;;15.51;55.94
56006;BME280;41888;44.696;10.522;2023-04-10T06:33:37;101351.56;;;16.02;54.46
56006;BME280;41888;44.696;10.522;2023-04-10T06:36:03;101353.91;;;15.61;57.01
56006;BME280;41888;44.696;10.522;2023-04-10T06:38:30;101345.03;;;18.10;49.72
56006;BME280;41888;44.696;10.522;2023-04-10T06:40:56;101357.13;;;17.78;49.32
56006;BME280;41888;44.696;10.522;2023-04-10T06:43:23;101360.28;;;17.75;49.25
56006;BME280;41888;44.696;10.522;2023-04-10T06:45:49;101363.19;;;17.25;50.87
56006;BME280;41888;44.696;10.522;2023-04-10T06:48:15;101358.41;;;18.98;47.74
56006;BME280;41888;44.696;10.522;2023-04-10T06:50:41;101361.09;;;18.98;46.42
56006;BME280;41888;44.696;10.522;2023-04-10T06:53:07;101364.16;;;19.02;47.01
56006;BME280;41888;44.696;10.522;2023-04-10T06:55:33;101361.22;;;19.55;47.04
56006;BME280;41888;44.696;10.522;2023-04-10T06:58:00;101359.13;;;18.94;46.66
56006;BME280;41888;44.696;10.522;2023-04-10T07:00:26;101349.44;;;16.11;54.50
56006;BME280;41888;44.696;10.522;2023-04-10T07:02:52;101350.56;;;14.63;62.46
56006;BME280;41888;44.696;10.522;2023-04-10T07:05:18;101345.56;;;13.68;66.46
56006;BME280;41888;44.696;10.522;2023-04-10T07:07:45;101346.78;;;13.72;68.47
56006;BME280;41888;44.696;10.522;2023-04-10T07:10:12;101343.34;;;12.83;74.01
56006;BME280;41888;44.696;10.522;2023-04-10T07:12:38;101341.25;;;11.95;77.64
56006;BME280;41888;44.696;10.522;2023-04-10T07:15:05;101347.88;;;12.55;77.29
56006;BME280;41888;44.696;10.522;2023-04-10T07:17:32;101336.38;;;11.99;77.93
56006;BME280;41888;44.696;10.522;2023-04-10T07:19:59;101335.88;;;11.89;78.17
56006;BME280;41888;44.696;10.522;2023-04-10T07:22:25;101339.41;;;11.38;81.55
56006;BME280;41888;44.696;10.522;2023-04-10T07:24:52;101341.09;;;11.61;79.07
56006;BME280;41888;44.696;10.522;2023-04-10T07:27:18;101340.38;;;11.88;75.83
56006;BME280;41888;44.696;10.522;2023-04-10T07:29:45;101332.56;;;11.87;76.32
56006;BME280;41888;44.696;10.522;2023-04-10T07:32:12;101350.28;;;11.22;77.85
56006;BME280;41888;44.696;10.522;2023-04-10T07:34:38;101341.50;;;11.43;79.06
56006;BME280;41888;44.696;10.522;2023-04-10T07:37:04;101349.06;;;11.39;76.52
56006;BME280;41888;44.696;10.522;2023-04-10T07:39:30;101346.41;;;11.39;76.89
56006;BME280;41888;44.696;10.522;2023-04-10T07:41:56;101337.09;;;11.71;75.94
56006;BME280;41888;44.696;10.522;2023-04-10T07:44:23;101347.97;;;12.12;73.64
56006;BME280;41888;44.696;10.522;2023-04-10T07:46:50;101347.88;;;11.99;72.43
56006;BME280;41888;44.696;10.522;2023-04-10T07:49:17;101350.25;;;12.43;72.43
56006;BME280;41888;44.696;10.522;2023-04-10T07:51:43;101356.00;;;12.40;69.41
56006;BME280;41888;44.696;10.522;2023-04-10T07:54:09;101355.75;;;12.35;70.06
56006;BME280;41888;44.696;10.522;2023-04-10T07:56:35;101358.22;;;12.09;71.06
56006;BME280;41888;44.696;10.522;2023-04-10T07:59:02;101358.31;;;11.79;72.08
56006;BME280;41888;44.696;10.522;2023-04-10T08:01:28;101354.22;;;11.77;73.13
56006;BME280;41888;44.696;10.522;2023-04-10T08:03:55;101349.13;;;12.03;72.40
56006;BME280;41888;44.696;10.522;2023-04-10T08:06:21;101356.97;;;12.11;71.14
56006;BME280;41888;44.696;10.522;2023-04-10T08:08:47;101365.06;;;11.97;71.79
56006;BME280;41888;44.696;10.522;2023-04-10T08:11:31;101359.63;;;12.05;70.11
56006;BME280;41888;44.696;10.522;2023-04-10T08:13:59;101351.63;;;12.05;68.03
56006;BME280;41888;44.696;10.522;2023-04-10T08:16:30;101358.81;;;12.32;62.78
56006;BME280;41888;44.696;10.522;2023-04-10T08:18:57;101363.75;;;12.35;62.21
56006;BME280;41888;44.696;10.522;2023-04-10T08:21:24;101366.97;;;12.24;60.79
56006;BME280;41888;44.696;10.522;2023-04-10T08:23:56;101365.41;;;12.36;62.17
56006;BME280;41888;44.696;10.522;2023-04-10T08:26:23;101362.59;;;12.44;58.66
56006;BME280;41888;44.696;10.522;2023-04-10T08:28:52;101359.59;;;12.26;63.17
56006;BME280;41888;44.696;10.522;2023-04-10T08:31:19;101362.78;;;12.43;60.61
56006;BME280;41888;44.696;10.522;2023-04-10T08:33:46;101362.41;;;12.80;58.96
56006;BME280;41888;44.696;10.522;2023-04-10T08:36:13;101360.84;;;12.92;58.60
56006;BME280;41888;44.696;10.522;2023-04-10T08:38:43;101360.03;;;12.92;59.31
56006;BME280;41888;44.696;10.522;2023-04-10T08:41:16;101366.84;;;12.94;60.78
56006;BME280;41888;44.696;10.522;2023-04-10T08:43:43;101360.06;;;13.39;60.12
56006;BME280;41888;44.696;10.522;2023-04-10T08:46:11;101365.16;;;13.21;58.23
56006;BME280;41888;44.696;10.522;2023-04-10T08:51:18;101370.75;;;12.98;55.81
56006;BME280;41888;44.696;10.522;2023-04-10T08:53:46;101363.06;;;13.17;56.22
56006;BME280;41888;44.696;10.522;2023-04-10T08:56:14;101365.41;;;12.98;55.75
56006;BME280;41888;44.696;10.522;2023-04-10T08:58:41;101362.63;;;13.13;54.12
56006;BME280;41888;44.696;10.522;2023-04-10T09:01:09;101371.22;;;13.08;55.16
56006;BME280;41888;44.696;10.522;2023-04-10T09:03:37;101353.41;;;12.81;56.90
56006;BME280;41888;44.696;10.522;2023-04-10T09:06:04;101357.06;;;12.80;56.81
56006;BME280;41888;44.696;10.522;2023-04-10T09:08:30;101360.94;;;13.05;56.41
56006;BME280;41888;44.696;10.522;2023-04-10T09:10:57;101366.63;;;12.96;56.19
56006;BME280;41888;44.696;10.522;2023-04-10T09:13:41;101360.75;;;13.61;56.16
56006;BME280;41888;44.696;10.522;2023-04-10T09:16:08;101372.69;;;13.11;55.97
56006;BME280;41888;44.696;10.522;2023-04-10T09:18:42;101365.22;;;13.06;55.72
56006;BME280;41888;44.696;10.522;2023-04-10T09:21:10;101365.25;;;13.54;56.24
56006;BME280;41888;44.696;10.522;2023-04-10T09:23:37;101369.06;;;14.06;54.07
56006;BME280;41888;44.696;10.522;2023-04-10T09:26:22;101369.41;;;13.63;55.09
56006;BME280;41888;44.696;10.522;2023-04-10T09:29:00;101363.63;;;13.53;54.53
56006;BME280;41888;44.696;10.522;2023-04-10T09:31:34;101371.00;;;13.51;55.67
56006;BME280;41888;44.696;10.522;2023-04-10T09:36:36;101364.66;;;13.65;56.22
56006;BME280;41888;44.696;10.522;2023-04-10T09:39:04;101371.91;;;13.78;55.11
56006;BME280;41888;44.696;10.522;2023-04-10T09:41:31;101364.44;;;13.47;54.89
56006;BME280;41888;44.696;10.522;2023-04-10T09:44:10;101364.69;;;13.72;56.05
56006;BME280;41888;44.696;10.522;2023-04-10T09:46:37;101363.72;;;14.25;53.79
56006;BME280;41888;44.696;10.522;2023-04-10T09:49:03;101351.56;;;14.23;52.99
56006;BME280;41888;44.696;10.522;2023-04-10T09:51:33;101370.94;;;14.51;52.74
56006;BME280;41888;44.696;10.522;2023-04-10T09:54:01;101366.22;;;14.40;50.69
56006;BME280;41888;44.696;10.522;2023-04-10T09:56:28;101366.66;;;14.37;51.29
56006;BME280;41888;44.696;10.522;2023-04-10T09:59:00;101366.81;;;14.16;52.40
56006;BME280;41888;44.696;10.522;2023-04-10T10:01:30;101363.94;;;14.50;52.73
56006;BME280;41888;44.696;10.522;2023-04-10T10:04:03;101364.97;;;14.49;54.17
56006;BME280;41888;44.696;10.522;2023-04-10T10:06:33;101352.19;;;14.64;52.97
56006;BME280;41888;44.696;10.522;2023-04-10T10:09:03;101362.91;;;14.45;52.02
56006;BME280;41888;44.696;10.522;2023-04-10T10:11:34;101355.69;;;14.65;50.54
56006;BME280;41888;44.696;10.522;2023-04-10T10:14:05;101358.25;;;15.11;51.05
56006;BME280;41888;44.696;10.522;2023-04-10T10:16:46;101362.41;;;14.94;50.79
56006;BME280;41888;44.696;10.522;2023-04-10T10:19:22;101350.25;;;14.98;50.88
56006;BME280;41888;44.696;10.522;2023-04-10T10:21:51;101350.69;;;14.95;53.36
56006;BME280;41888;44.696;10.522;2023-04-10T10:24:19;101338.75;;;14.91;52.55
56006;BME280;41888;44.696;10.522;2023-04-10T10:26:49;101346.91;;;15.09;51.99
56006;BME280;41888;44.696;10.522;2023-04-10T10:29:17;101345.59;;;15.31;53.43
56006;BME280;41888;44.696;10.522;2023-04-10T10:31:45;101339.97;;;15.39;51.76
56006;BME280;41888;44.696;10.522;2023-04-10T10:34:11;101341.25;;;14.59;53.30
56006;BME280;41888;44.696;10.522;2023-04-10T10:36:40;101351.53;;;14.82;53.15
56006;BME280;41888;44.696;10.522;2023-04-10T10:39:29;101326.72;;;15.44;52.65
56006;BME280;41888;44.696;10.522;2023-04-10T10:44:51;101327.91;;;15.61;50.26
56006;BME280;41888;44.696;10.522;2023-04-10T10:47:19;101326.31;;;15.85;49.33
56006;BME280;41888;44.696;10.522;2023-04-10T10:49:52;101321.88;;;15.97;48.32
56006;BME280;41888;44.696;10.522;2023-04-10T10:52:58;101324.22;;;15.49;49.92
56006;BME280;41888;44.696;10.522;2023-04-10T10:58:07;101309.13;;;15.61;49.78
56006;BME280;41888;44.696;10.522;2023-04-10T11:06:02;101308.13;;;15.49;50.82
56006;BME280;41888;44.696;10.522;2023-04-10T11:08:43;101306.53;;;14.97;50.40
56006;BME280;41888;44.696;10.522;2023-04-10T11:16:23;101298.47;;;15.10;50.67
56006;BME280;41888;44.696;10.522;2023-04-10T11:19:07;101287.63;;;15.68;48.49
56006;BME280;41888;44.696;10.522;2023-04-10T11:21:34;101270.16;;;16.52;48.66
56006;BME280;41888;44.696;10.522;2023-04-10T11:24:01;101273.81;;;17.12;48.21
56006;BME280;41888;44.696;10.522;2023-04-10T11:31:56;101271.38;;;15.63;49.80
56006;BME280;41888;44.696;10.522;2023-04-10T11:34:23;101280.16;;;15.39;50.61
56006;BME280;41888;44.696;10.522;2023-04-10T11:36:49;101282.22;;;15.43;51.48
56006;BME280;41888;44.696;10.522;2023-04-10T11:39:16;101273.91;;;15.83;50.85
56006;BME280;41888;44.696;10.522;2023-04-10T11:41:44;101253.84;;;16.10;49.71
56006;BME280;41888;44.696;10.522;2023-04-10T11:44:23;101259.59;;;15.89;49.83
56006;BME280;41888;44.696;10.522;2023-04-10T11:46:51;101260.66;;;16.31;49.65
56006;BME280;41888;44.696;10.522;2023-04-10T11:49:26;101262.28;;;16.75;48.26
56006;BME280;41888;44.696;10.522;2023-04-10T11:51:53;101256.75;;;16.70;47.78
56006;BME280;41888;44.696;10.522;2023-04-10T11:54:24;101251.25;;;15.97;48.84
56006;BME280;41888;44.696;10.522;2023-04-10T11:59:29;101255.00;;;16.57;47.35
56006;BME280;41888;44.696;10.522;2023-04-10T12:02:06;101248.81;;;16.93;47.52
56006;BME280;41888;44.696;10.522;2023-04-10T12:04:32;101247.28;;;17.57;45.95
56006;BME280;41888;44.696;10.522;2023-04-10T12:06:59;101244.84;;;17.25;46.92
56006;BME280;41888;44.696;10.522;2023-04-10T12:09:25;101243.47;;;17.35;46.67
56006;BME280;41888;44.696;10.522;2023-04-10T12:11:53;101240.06;;;16.98;47.98
56006;BME280;41888;44.696;10.522;2023-04-10T12:14:20;101240.94;;;16.62;47.51
56006;BME280;41888;44.696;10.522;2023-04-10T12:16:47;101237.38;;;16.98;47.17
56006;BME280;41888;44.696;10.522;2023-04-10T12:19:15;101231.72;;;17.47;46.39
56006;BME280;41888;44.696;10.522;2023-04-10T12:21:44;101232.28;;;16.60;47.43
56006;BME280;41888;44.696;10.522;2023-04-10T12:24:11;101236.81;;;16.77;44.75
56006;BME280;41888;44.696;10.522;2023-04-10T12:26:37;101224.28;;;16.71;45.76
56006;BME280;41888;44.696;10.522;2023-04-10T12:29:04;101227.84;;;16.83;46.16
56006;BME280;41888;44.696;10.522;2023-04-10T12:31:34;101223.09;;;16.85;46.17
56006;BME280;41888;44.696;10.522;2023-04-10T12:34:02;101223.81;;;17.22;45.64
56006;BME280;41888;44.696;10.522;2023-04-10T12:36:30;101220.91;;;17.36;44.63
56006;BME280;41888;44.696;10.522;2023-04-10T12:39:00;101217.50;;;16.69;44.68
56006;BME280;41888;44.696;10.522;2023-04-10T12:41:32;101217.66;;;16.74;45.26
56006;BME280;41888;44.696;10.522;2023-04-10T12:44:09;101214.06;;;16.80;45.43
56006;BME280;41888;44.696;10.522;2023-04-10T12:46:37;101210.91;;;16.46;44.63
56006;BME280;41888;44.696;10.522;2023-04-10T12:49:15;101203.03;;;17.00;44.30
56006;BME280;41888;44.696;10.522;2023-04-10T12:51:49;101204.28;;;16.67;43.62
56006;BME280;41888;44.696;10.522;2023-04-10T12:54:32;101198.66;;;16.87;43.89
56006;BME280;41888;44.696;10.522;2023-04-10T12:56:59;101194.09;;;17.17;44.00
56006;BME280;41888;44.696;10.522;2023-04-10T12:59:26;101198.66;;;16.51;43.72
56006;BME280;41888;44.696;10.522;2023-04-10T13:01:53;101189.72;;;17.05;44.14
56006;BME280;41888;44.696;10.522;2023-04-10T13:04:19;101199.09;;;17.02;42.47
56006;BME280;41888;44.696;10.522;2023-04-10T13:06:47;101192.16;;;16.76;43.05
56006;BME280;41888;44.696;10.522;2023-04-10T13:09:14;101194.00;;;16.94;43.54
56006;BME280;41888;44.696;10.522;2023-04-10T13:11:42;101191.66;;;16.98;43.96
56006;BME280;41888;44.696;10.522;2023-04-10T13:14:08;101188.03;;;16.92;43.42
56006;BME280;41888;44.696;10.522;2023-04-10T13:16:36;101195.09;;;16.20;44.25
56006;BME280;41888;44.696;10.522;2023-04-10T13:19:02;101184.56;;;16.55;41.93
56006;BME280;41888;44.696;10.522;2023-04-10T13:21:29;101174.28;;;16.70;44.59
56006;BME280;41888;44.696;10.522;2023-04-10T13:23:55;101172.97;;;17.33;43.42